LQTZ

Tuzla International Airport

Tuzla, Bosnia and Herzegovina
TAF LQTZ 221100Z 2212/2312 09004KT 3000 -SN BR BKN007 OVC015 TXM00/2213Z TNM02/2306Z TEMPO 2212/2224 1200 SN BKN004 OVC013 PROB30 TEMPO 2300/2306 0300 FZFG BKN002 OVC010 PROB40 TEMPO 2309/2312 6000 NSW BKN030
Issued Valid From Valid To
Jan-22 @ 11:00 UTC
(6 hours ago)
Jan-22 @ 12:00 UTC
(5 hours ago)
Jan-23 @ 12:00 UTC
(in 19 hours)
Jan-22 @ 12:00 to Jan-23 @ 12:00
TAF LQTZ 221100Z 2212/2312 09004KT 3000 -SN BR BKN007 OVC015 TXM00/2213Z TNM02/2306Z
Wind Visibility Clouds Conditions
90° at 4 knots 2,993 meters
  • Broken at 700' AGL
  • Overcast at 1,500' AGL
  • Light Snow
  • Mist
Temporary Jan-22 @ 12:00 to Jan-23 @ 00:00
TEMPO 2212/2224 1200 SN BKN004 OVC013
Visibility Clouds Conditions
1,207 meters
  • Broken at 400' AGL
  • Overcast at 1,300' AGL
  • Snow
Temporary  (Probability 30%) Jan-23 @ 00:00 to Jan-23 @ 06:00
PROB30 TEMPO 2300/2306 0300 FZFG BKN002 OVC010
Visibility Clouds Conditions
306 meters
  • Broken at 200' AGL
  • Overcast at 1,000' AGL
  • Freezing
  • Fog
Temporary  (Probability 40%) Jan-23 @ 09:00 to Jan-23 @ 12:00
PROB40 TEMPO 2309/2312 6000 NSW BKN030
Visibility Clouds Conditions
6,003 meters
  • Broken at 3,000' AGL
TAF LQTZ 221100Z 2212/2312 09004KT 3000 -SN BR BKN007 OVC015 TXM00/2213Z TNM02/2306Z TEMPO 2212/2224 1200 SN BKN004 OVC013 PROB30 TEMPO 2300/2306 0300 FZFG BKN002 OVC010 PROB40 TEMPO 2309/2312 6000 NSW BKN030
Issued Jan-22 @ 11:00 UTC
(6 hours ago)
Valid From Jan-22 @ 12:00 UTC
(5 hours ago)
Valid To Jan-23 @ 12:00 UTC
(in 19 hours)
Jan-22 @ 12:00 - Jan-23 @ 12:00
Wind Visibility
90° at 4 knots 2,993 meters
Clouds
  • Broken at 700' AGL
  • Overcast at 1,500' AGL
Conditions
  • Light Snow
  • Mist
Temporary Jan-22 @ 12:00 - Jan-23 @ 00:00
Clouds
  • Broken at 400' AGL
  • Overcast at 1,300' AGL
Conditions
  • Snow
Probability 30% Temporary Jan-23 @ 00:00 - Jan-23 @ 06:00
Clouds
  • Broken at 200' AGL
  • Overcast at 1,000' AGL
Conditions
  • Freezing
  • Fog
Probability 40% Temporary Jan-23 @ 09:00 - Jan-23 @ 12:00
Clouds
  • Broken at 3,000' AGL
Conditions